createdAt,value
2023-04-28T00:01:40.923Z,52.80
2023-04-28T00:04:08.434Z,63.00
2023-04-28T00:06:35.479Z,53.70
2023-04-28T00:09:03.052Z,50.20
2023-04-28T00:11:29.715Z,54.60
2023-04-28T00:13:56.367Z,53.10
2023-04-28T00:16:23.632Z,56.70
2023-04-28T00:18:50.719Z,56.90
2023-04-28T00:21:17.400Z,57.40
2023-04-28T00:23:44.134Z,59.10
2023-04-28T00:26:11.701Z,64.50
2023-04-28T00:28:39.119Z,64.00
2023-04-28T00:31:15.126Z,74.40
2023-04-28T00:33:42.940Z,80.60
2023-04-28T00:36:10.428Z,88.50
2023-04-28T00:38:37.578Z,99.60
2023-04-28T00:41:04.406Z,95.70
2023-04-28T00:43:30.966Z,85.40
2023-04-28T00:45:57.646Z,77.20
2023-04-28T00:48:24.399Z,81.70
2023-04-28T00:50:51.513Z,77.20
2023-04-28T00:53:18.094Z,83.90
2023-04-28T00:55:46.404Z,78.70
2023-04-28T00:58:13.134Z,71.20
2023-04-28T01:00:39.913Z,77.10
2023-04-28T01:03:07.381Z,75.00
2023-04-28T01:05:36.058Z,65.40
2023-04-28T01:08:02.710Z,64.10
2023-04-28T01:10:29.245Z,62.20
2023-04-28T01:12:56.528Z,58.70
2023-04-28T01:15:23.528Z,60.00
2023-04-28T01:17:53.014Z,66.10
2023-04-28T01:20:20.105Z,70.30
2023-04-28T01:22:47.370Z,60.10
2023-04-28T01:25:14.301Z,60.20
2023-04-28T01:27:40.833Z,56.40
2023-04-28T01:30:08.628Z,61.10
2023-04-28T01:32:35.534Z,56.80
2023-04-28T01:35:03.057Z,55.80
2023-04-28T01:37:30.028Z,56.80
2023-04-28T01:39:56.695Z,48.50
2023-04-28T01:42:25.037Z,48.10
2023-04-28T01:44:52.567Z,48.20
2023-04-28T01:47:19.831Z,46.50
2023-04-28T01:49:47.724Z,46.40
2023-04-28T01:52:14.368Z,39.90
2023-04-28T01:54:41.117Z,45.30
2023-04-28T01:57:07.727Z,45.20
2023-04-28T01:59:34.564Z,42.50
2023-04-28T02:02:01.691Z,45.10
2023-04-28T02:04:28.554Z,45.70
2023-04-28T02:06:55.131Z,44.20
2023-04-28T02:09:21.722Z,44.50
2023-04-28T02:11:50.316Z,40.50
2023-04-28T02:14:17.125Z,48.30
2023-04-28T02:16:43.970Z,59.00
2023-04-28T02:19:11.633Z,53.20
2023-04-28T02:21:38.237Z,49.40
2023-04-28T02:24:07.553Z,49.10
2023-04-28T02:26:34.765Z,47.60
2023-04-28T02:29:03.638Z,46.80
2023-04-28T02:31:32.438Z,39.90
2023-04-28T02:33:59.207Z,39.00
2023-04-28T02:36:27.148Z,30.30
2023-04-28T02:38:53.743Z,33.50
2023-04-28T02:41:20.818Z,29.60
2023-04-28T02:43:47.542Z,32.00
2023-04-28T02:46:14.518Z,27.50
2023-04-28T02:48:42.009Z,33.80
2023-04-28T02:51:10.419Z,29.40
2023-04-28T02:53:37.460Z,30.10
2023-04-28T02:56:04.605Z,32.40
2023-04-28T02:58:32.295Z,30.50
2023-04-28T03:00:58.906Z,33.10
2023-04-28T03:03:25.611Z,31.10
2023-04-28T03:05:52.809Z,33.50
2023-04-28T03:08:20.300Z,58.20
2023-04-28T03:10:46.852Z,37.60
2023-04-28T03:13:13.455Z,35.80
2023-04-28T03:15:42.256Z,43.40
2023-04-28T03:18:09.236Z,41.70
2023-04-28T03:20:35.908Z,40.20
2023-04-28T03:23:03.091Z,39.20
2023-04-28T03:25:30.233Z,38.10
2023-04-28T03:27:57.281Z,51.70
2023-04-28T03:30:23.856Z,39.10
2023-04-28T03:32:50.507Z,42.90
2023-04-28T03:35:17.257Z,40.30
2023-04-28T03:37:44.033Z,40.90
2023-04-28T03:40:11.232Z,43.80
2023-04-28T03:42:58.726Z,38.50
2023-04-28T03:45:33.249Z,41.10
2023-04-28T03:48:00.299Z,39.60
2023-04-28T03:50:26.983Z,41.50
2023-04-28T03:52:56.342Z,36.90
2023-04-28T03:55:23.514Z,40.70
2023-04-28T03:57:51.711Z,40.40
2023-04-28T04:00:18.755Z,38.20
2023-04-28T04:02:46.353Z,35.70
2023-04-28T04:05:13.461Z,39.50
2023-04-28T04:07:41.018Z,34.90
2023-04-28T04:10:08.339Z,33.80
2023-04-28T04:12:36.056Z,36.80
2023-04-28T04:15:03.403Z,41.40
2023-04-28T04:17:30.969Z,34.50
2023-04-28T04:19:58.136Z,34.50
2023-04-28T04:22:26.779Z,39.00
2023-04-28T04:24:53.317Z,35.50
2023-04-28T04:27:20.128Z,41.40
2023-04-28T04:29:46.780Z,42.90
2023-04-28T04:32:14.405Z,43.60
2023-04-28T04:34:41.737Z,46.60
2023-04-28T04:37:09.723Z,45.00
2023-04-28T04:39:40.871Z,42.80
2023-04-28T04:42:23.461Z,39.40
2023-04-28T04:45:06.195Z,42.50
2023-04-28T04:47:32.907Z,42.30
2023-04-28T04:50:00.004Z,43.90
2023-04-28T04:52:26.745Z,52.10
2023-04-28T04:54:55.924Z,46.90
2023-04-28T04:57:23.818Z,52.70
2023-04-28T05:00:09.236Z,46.60
2023-04-28T05:02:36.703Z,57.70
2023-04-28T05:05:19.835Z,51.60
2023-04-28T05:07:54.235Z,44.40
2023-04-28T05:10:21.218Z,52.00
2023-04-28T05:12:49.142Z,40.00
2023-04-28T05:15:16.590Z,36.20
2023-04-28T05:17:49.429Z,31.70
2023-04-28T05:20:16.193Z,32.80
2023-04-28T05:22:42.777Z,29.60
2023-04-28T05:25:09.468Z,35.50
2023-04-28T05:27:38.834Z,28.40
2023-04-28T05:30:07.537Z,30.50
2023-04-28T05:32:35.391Z,31.90
2023-04-28T05:35:02.905Z,27.10
2023-04-28T05:37:29.543Z,29.10
2023-04-28T05:39:56.504Z,36.70
2023-04-28T05:42:23.078Z,27.70
2023-04-28T05:44:49.794Z,24.90
2023-04-28T05:47:16.364Z,22.10
2023-04-28T05:49:42.974Z,27.00
2023-04-28T05:52:09.575Z,17.70
2023-04-28T05:54:36.303Z,16.80
2023-04-28T05:57:03.035Z,17.40
2023-04-28T05:59:30.963Z,15.90
2023-04-28T06:01:57.819Z,19.40
2023-04-28T06:04:25.581Z,19.00
2023-04-28T06:06:52.883Z,17.40
2023-04-28T06:09:19.702Z,15.00
2023-04-28T06:11:46.770Z,16.30
2023-04-28T06:14:13.398Z,18.50
2023-04-28T06:16:42.240Z,19.00
2023-04-28T06:19:09.283Z,15.70
2023-04-28T06:21:36.401Z,17.60
2023-04-28T06:24:03.325Z,14.20
2023-04-28T06:26:30.483Z,15.10
2023-04-28T06:28:57.063Z,19.70
2023-04-28T06:31:23.854Z,17.50
2023-04-28T06:33:52.687Z,14.80
2023-04-28T06:36:19.312Z,16.70
2023-04-28T06:38:46.062Z,15.40
2023-04-28T06:41:12.850Z,14.70
2023-04-28T06:43:41.207Z,12.50
2023-04-28T06:46:11.147Z,13.60
2023-04-28T06:48:38.237Z,10.90
2023-04-28T06:51:05.532Z,12.90
2023-04-28T06:53:33.833Z,13.30
2023-04-28T06:56:01.746Z,13.10
2023-04-28T06:58:28.298Z,15.10
2023-04-28T07:00:55.126Z,12.90
2023-04-28T07:03:21.823Z,12.90
2023-04-28T07:05:48.508Z,14.70
2023-04-28T07:08:16.978Z,17.70
2023-04-28T07:10:43.534Z,9.60
2023-04-28T07:13:10.173Z,12.20
2023-04-28T07:15:37.444Z,13.30
2023-04-28T07:18:04.183Z,10.60
2023-04-28T07:20:30.798Z,11.90
2023-04-28T07:22:57.377Z,13.00
2023-04-28T07:25:24.011Z,10.40
2023-04-28T07:27:50.841Z,10.50
2023-04-28T07:30:27.270Z,11.60
2023-04-28T07:32:55.557Z,13.00
2023-04-28T07:35:22.410Z,14.50
2023-04-28T07:37:49.121Z,17.60
2023-04-28T07:40:16.884Z,22.90
2023-04-28T07:42:43.492Z,15.00
2023-04-28T07:45:10.760Z,11.10
2023-04-28T07:47:37.982Z,15.90
2023-04-28T07:50:06.101Z,13.20
2023-04-28T07:52:33.857Z,9.80
2023-04-28T07:55:01.792Z,12.20
2023-04-28T07:57:30.873Z,15.40
2023-04-28T07:59:57.464Z,11.00
2023-04-28T08:02:25.534Z,11.70
2023-04-28T08:04:52.556Z,10.00
2023-04-28T08:07:19.897Z,10.30
2023-04-28T08:09:47.590Z,9.00
2023-04-28T08:12:15.104Z,4.50
2023-04-28T08:14:42.089Z,13.20
2023-04-28T08:17:08.762Z,8.40
2023-04-28T08:19:35.376Z,11.00
2023-04-28T08:22:05.283Z,12.40
2023-04-28T08:24:35.773Z,6.60
2023-04-28T08:27:03.146Z,5.30
2023-04-28T08:29:31.503Z,16.80
2023-04-28T08:31:58.643Z,9.20
2023-04-28T08:34:25.160Z,8.20
2023-04-28T08:36:52.505Z,6.50
2023-04-28T08:39:23.020Z,10.10
2023-04-28T08:41:50.062Z,9.10
2023-04-28T08:44:16.996Z,12.60
2023-04-28T08:46:45.346Z,5.80
2023-04-28T08:49:18.188Z,6.60
2023-04-28T08:52:09.158Z,8.40
2023-04-28T08:54:37.438Z,6.10
2023-04-28T08:57:05.033Z,5.60
2023-04-28T08:59:32.287Z,9.90
2023-04-28T09:01:59.849Z,10.50
2023-04-28T09:04:26.821Z,6.30
2023-04-28T09:06:53.716Z,7.60
2023-04-28T09:09:21.047Z,10.80
2023-04-28T09:11:58.912Z,9.00
2023-04-28T09:14:27.567Z,5.70
2023-04-28T09:16:54.798Z,6.70
2023-04-28T09:19:21.620Z,7.30
2023-04-28T09:21:53.616Z,6.10
2023-04-28T09:24:33.448Z,5.00
2023-04-28T09:27:04.341Z,7.30
2023-04-28T09:29:31.719Z,8.40
2023-04-28T09:32:17.898Z,6.70
2023-04-28T09:34:51.157Z,6.80
2023-04-28T09:37:22.948Z,8.00
2023-04-28T09:39:51.165Z,5.50
2023-04-28T09:42:41.460Z,7.30
2023-04-28T09:45:13.002Z,8.70
2023-04-28T09:47:41.448Z,7.80
2023-04-28T09:50:12.002Z,5.00
2023-04-28T09:52:39.217Z,4.70
2023-04-28T09:55:10.426Z,8.60
2023-04-28T09:57:38.393Z,10.30
2023-04-28T10:00:08.474Z,6.70
2023-04-28T10:05:08.730Z,5.30
2023-04-28T10:07:36.227Z,8.30
2023-04-28T10:10:03.651Z,6.10
2023-04-28T10:12:31.944Z,8.90
2023-04-28T10:14:59.298Z,7.10
2023-04-28T10:17:27.565Z,6.90
2023-04-28T10:19:54.732Z,6.30
2023-04-28T10:22:52.900Z,6.40
2023-04-28T10:25:26.893Z,4.00
2023-04-28T10:27:54.014Z,5.20
2023-04-28T10:30:28.259Z,7.30
2023-04-28T10:33:08.730Z,10.30
2023-04-28T10:35:39.764Z,5.00
2023-04-28T10:38:13.463Z,4.40
2023-04-28T10:40:42.330Z,5.50
2023-04-28T10:43:12.516Z,5.10
2023-04-28T10:45:57.457Z,5.10
2023-04-28T10:48:34.303Z,6.40
2023-04-28T10:51:03.946Z,5.40
2023-04-28T10:53:46.190Z,3.90
2023-04-28T10:56:26.501Z,7.10
2023-04-28T10:59:24.444Z,3.40
2023-04-28T11:01:51.342Z,5.60
2023-04-28T11:04:18.044Z,8.00
2023-04-28T11:06:46.488Z,3.80
2023-04-28T11:09:18.951Z,7.90
2023-04-28T11:12:00.564Z,6.10
2023-04-28T11:14:35.217Z,6.30
2023-04-28T11:17:06.736Z,5.50
2023-04-28T11:19:36.037Z,4.60
2023-04-28T11:22:13.441Z,6.40
2023-04-28T11:24:40.284Z,3.30
2023-04-28T11:27:07.853Z,6.30
2023-04-28T11:29:39.263Z,4.40
2023-04-28T11:32:08.632Z,5.40
2023-04-28T11:34:36.724Z,8.10
2023-04-28T11:37:05.204Z,8.00
2023-04-28T11:39:34.768Z,2.90
2023-04-28T11:42:08.625Z,6.30
2023-04-28T11:44:35.357Z,8.50
2023-04-28T11:47:05.093Z,6.90
2023-04-28T11:49:42.288Z,5.10
2023-04-28T11:52:09.747Z,7.30
2023-04-28T11:54:37.714Z,4.60
2023-04-28T11:57:05.101Z,5.30
2023-04-28T11:59:35.394Z,7.50
2023-04-28T12:02:05.033Z,5.80
2023-04-28T12:04:36.064Z,5.30
2023-04-28T12:07:16.702Z,4.00
2023-04-28T12:09:46.218Z,2.50
2023-04-28T12:15:07.536Z,4.20
2023-04-28T12:17:37.136Z,6.60
2023-04-28T12:20:08.895Z,3.40
2023-04-28T12:22:47.518Z,3.60
2023-04-28T12:25:16.597Z,3.00
2023-04-28T12:28:00.969Z,6.50
2023-04-28T12:30:29.556Z,6.50
2023-04-28T12:32:56.909Z,5.30
2023-04-28T12:35:28.162Z,9.80
2023-04-28T12:37:56.237Z,5.70
2023-04-28T12:40:23.648Z,4.50
2023-04-28T12:42:50.503Z,4.40
2023-04-28T12:45:17.161Z,6.20
2023-04-28T12:47:43.726Z,9.50
2023-04-28T12:50:10.365Z,7.90
2023-04-28T12:52:36.986Z,6.40
2023-04-28T12:55:04.365Z,5.70
2023-04-28T12:57:31.010Z,3.10
2023-04-28T12:59:57.634Z,8.50
2023-04-28T13:02:24.438Z,5.60
2023-04-28T13:04:52.658Z,4.60
2023-04-28T13:07:19.385Z,4.80
2023-04-28T13:09:46.925Z,6.20
2023-04-28T13:12:14.016Z,13.80
2023-04-28T13:14:40.934Z,8.30
2023-04-28T13:17:08.515Z,4.80
2023-04-28T13:19:35.130Z,5.50
2023-04-28T13:22:04.547Z,4.20
2023-04-28T13:24:32.791Z,6.70
2023-04-28T13:26:59.727Z,6.10
2023-04-28T13:29:26.418Z,4.70
2023-04-28T13:31:53.080Z,6.70
2023-04-28T13:34:19.799Z,5.30
2023-04-28T13:36:50.112Z,8.10
2023-04-28T13:39:19.457Z,6.00
2023-04-28T13:41:46.137Z,4.80
2023-04-28T13:44:13.392Z,3.70
2023-04-28T13:46:39.988Z,4.80
2023-04-28T13:49:09.995Z,3.10
2023-04-28T13:51:36.637Z,4.70
2023-04-28T13:54:03.820Z,2.80
2023-04-28T13:56:34.090Z,9.20
2023-04-28T13:59:01.025Z,3.40
2023-04-28T14:01:28.265Z,6.30
2023-04-28T14:03:55.143Z,4.30
2023-04-28T14:06:22.412Z,9.60
2023-04-28T14:08:49.044Z,5.40
2023-04-28T14:11:15.678Z,5.00
2023-04-28T14:13:42.639Z,3.90
2023-04-28T14:16:09.265Z,6.40
2023-04-28T14:18:35.948Z,6.40
2023-04-28T14:21:07.259Z,13.40
2023-04-28T14:23:34.873Z,4.80
2023-04-28T14:26:01.502Z,3.80
2023-04-28T14:28:28.420Z,3.30
2023-04-28T14:30:55.099Z,14.50
2023-04-28T14:33:21.829Z,8.10
2023-04-28T14:35:48.366Z,4.30
2023-04-28T14:38:15.047Z,6.20
2023-04-28T14:40:42.518Z,4.80
2023-04-28T14:43:09.119Z,6.30
2023-04-28T14:45:37.496Z,8.90
2023-04-28T14:48:06.039Z,6.20
2023-04-28T14:50:32.665Z,8.10
2023-04-28T14:53:04.664Z,4.60
2023-04-28T14:55:31.321Z,3.50
2023-04-28T15:04:10.062Z,4.80
2023-04-28T15:06:38.191Z,4.60
2023-04-28T15:09:06.324Z,5.90
2023-04-28T15:11:34.275Z,6.90
2023-04-28T15:14:02.256Z,4.90
2023-04-28T15:16:30.268Z,5.60
2023-04-28T15:18:58.295Z,8.10
2023-04-28T15:21:26.324Z,7.00
2023-04-28T15:23:54.425Z,7.70
2023-04-28T15:26:23.786Z,8.30
2023-04-28T15:28:52.230Z,6.70
2023-04-28T15:31:21.438Z,7.90
2023-04-28T15:33:50.322Z,10.00
2023-04-28T15:36:21.366Z,8.70
2023-04-28T15:38:50.182Z,6.00
2023-04-28T15:41:18.544Z,7.60
2023-04-28T15:43:46.619Z,7.00
2023-04-28T15:46:17.667Z,5.40
2023-04-28T15:48:45.770Z,7.90
2023-04-28T15:51:13.733Z,9.30
2023-04-28T15:53:41.772Z,10.00
2023-04-28T15:56:09.808Z,6.20
2023-04-28T15:58:37.821Z,8.30
2023-04-28T16:01:05.828Z,9.30
2023-04-28T16:03:34.019Z,6.00
2023-04-28T16:06:03.591Z,6.70
2023-04-28T16:08:31.586Z,8.00
2023-04-28T16:10:59.629Z,8.20
2023-04-28T16:13:28.346Z,6.10
2023-04-28T16:15:56.335Z,11.90
2023-04-28T16:18:24.377Z,7.00
2023-04-28T16:20:53.852Z,8.60
2023-04-28T16:23:22.394Z,6.00
2023-04-28T16:25:51.014Z,6.40
2023-04-28T16:28:19.029Z,6.90
2023-04-28T16:30:47.632Z,4.20
2023-04-28T16:33:15.623Z,10.50
2023-04-28T16:35:43.646Z,11.10
2023-04-28T16:38:12.362Z,7.50
2023-04-28T16:40:40.877Z,7.40
2023-04-28T16:43:08.896Z,7.10
2023-04-28T16:45:36.909Z,8.90
2023-04-28T16:48:05.104Z,8.00
2023-04-28T16:50:33.241Z,9.50
2023-04-28T16:53:01.302Z,7.80
2023-04-28T16:55:30.191Z,8.60
2023-04-28T16:57:58.158Z,7.40
2023-04-28T17:00:26.127Z,11.00
2023-04-28T17:02:54.341Z,13.50
2023-04-28T17:05:22.614Z,8.20
2023-04-28T17:07:50.792Z,12.60
2023-04-28T17:10:18.844Z,8.10
2023-04-28T17:12:47.193Z,8.70
2023-04-28T17:15:17.374Z,8.00
2023-04-28T17:17:50.032Z,11.40
2023-04-28T17:20:20.246Z,7.50
2023-04-28T17:22:50.451Z,7.20
2023-04-28T17:25:19.020Z,15.80
2023-04-28T17:27:46.955Z,28.40
2023-04-28T17:30:15.258Z,36.40
2023-04-28T17:32:43.588Z,30.90
2023-04-28T17:35:12.066Z,19.50
2023-04-28T17:37:39.963Z,13.40
2023-04-28T17:40:08.680Z,17.70
2023-04-28T17:42:36.757Z,12.90
2023-04-28T17:45:07.430Z,22.00
2023-04-28T17:47:36.519Z,21.80
2023-04-28T17:50:06.612Z,16.90
2023-04-28T17:52:34.990Z,13.80
2023-04-28T17:55:03.386Z,15.20
2023-04-28T17:57:32.280Z,12.30
2023-04-28T18:00:00.270Z,12.70
2023-04-28T18:02:28.342Z,11.10
2023-04-28T18:04:56.534Z,10.70
2023-04-28T18:07:25.092Z,18.60
2023-04-28T18:09:53.300Z,22.20
2023-04-28T18:12:21.616Z,29.70
2023-04-28T18:14:50.563Z,20.40
2023-04-28T18:17:18.547Z,20.70
2023-04-28T18:19:51.474Z,14.90
2023-04-28T18:22:19.560Z,17.70
2023-04-28T18:24:48.745Z,16.10
2023-04-28T18:27:16.887Z,19.40
2023-04-28T18:29:45.087Z,23.90
2023-04-28T18:32:14.736Z,29.20
2023-04-28T18:34:43.735Z,24.90
2023-04-28T18:37:11.760Z,21.70
2023-04-28T18:39:39.828Z,19.40
2023-04-28T18:42:07.915Z,25.20
2023-04-28T18:44:36.980Z,25.90
2023-04-28T18:47:05.061Z,20.50
2023-04-28T18:49:33.441Z,20.30
2023-04-28T18:52:03.691Z,24.80
2023-04-28T18:54:32.951Z,19.70
2023-04-28T18:57:00.998Z,15.90
2023-04-28T18:59:29.510Z,13.40
2023-04-28T19:01:58.380Z,16.20
2023-04-28T19:04:26.704Z,15.20
2023-04-28T19:06:55.233Z,14.50
2023-04-28T19:09:23.327Z,16.40
2023-04-28T19:11:51.441Z,19.50
2023-04-28T19:14:19.428Z,18.10
2023-04-28T19:16:47.472Z,18.90
2023-04-28T19:19:15.712Z,13.60
2023-04-28T19:21:44.685Z,24.30
2023-04-28T19:24:12.957Z,27.60
2023-04-28T19:26:40.870Z,26.90
2023-04-28T19:29:09.182Z,22.20
2023-04-28T19:31:37.331Z,21.30
2023-04-28T19:34:05.638Z,15.00
2023-04-28T19:36:33.565Z,13.90
2023-04-28T19:39:01.594Z,11.80
2023-04-28T19:41:29.535Z,12.90
2023-04-28T19:43:57.496Z,16.70
2023-04-28T19:46:25.500Z,16.60
2023-04-28T19:48:53.664Z,13.90
2023-04-28T19:51:21.631Z,13.90
2023-04-28T19:53:51.067Z,19.50
2023-04-28T19:56:20.557Z,19.80
2023-04-28T19:58:48.835Z,20.10
2023-04-28T20:01:16.797Z,21.20
2023-04-28T20:03:45.025Z,25.00
2023-04-28T20:06:17.623Z,21.10
2023-04-28T20:08:45.917Z,21.30
2023-04-28T20:11:14.305Z,20.50
2023-04-28T20:13:42.365Z,18.50
2023-04-28T20:16:10.476Z,16.20
2023-04-28T20:18:38.490Z,14.70
2023-04-28T20:21:06.798Z,16.60
2023-04-28T20:23:34.708Z,11.70
2023-04-28T20:26:02.978Z,12.70
2023-04-28T20:28:31.094Z,11.60
2023-04-28T20:30:59.068Z,12.30
2023-04-28T20:33:27.162Z,12.60
2023-04-28T20:35:55.122Z,10.90
2023-04-28T20:38:23.117Z,16.60
2023-04-28T20:40:51.057Z,14.20
2023-04-28T20:43:18.988Z,15.60
2023-04-28T20:45:47.497Z,10.40
2023-04-28T20:48:15.423Z,15.90
2023-04-28T20:50:45.160Z,14.30
2023-04-28T20:53:13.112Z,14.80
2023-04-28T20:55:41.044Z,11.70
2023-04-28T20:58:09.616Z,16.60
2023-04-28T21:00:40.458Z,16.30
2023-04-28T21:03:15.089Z,17.00
2023-04-28T21:05:44.882Z,13.10
2023-04-28T21:08:13.280Z,14.90
2023-04-28T21:10:41.273Z,13.40
2023-04-28T21:13:09.841Z,11.30
2023-04-28T21:15:38.802Z,10.80
2023-04-28T21:18:07.197Z,13.00
2023-04-28T21:20:35.888Z,14.50
2023-04-28T21:23:04.389Z,13.50
2023-04-28T21:25:32.314Z,10.80
2023-04-28T21:28:01.885Z,12.10
2023-04-28T21:30:30.193Z,10.30
2023-04-28T21:32:58.210Z,9.50
2023-04-28T21:35:26.376Z,12.90
2023-04-28T21:37:54.374Z,16.40
2023-04-28T21:40:22.713Z,12.90
2023-04-28T21:42:51.140Z,16.30
2023-04-28T21:45:19.019Z,13.70
2023-04-28T21:47:47.360Z,11.00
2023-04-28T21:50:15.494Z,12.30
2023-04-28T21:52:43.436Z,12.20
2023-04-28T21:55:11.434Z,12.00
2023-04-28T21:57:39.356Z,12.30
2023-04-28T22:00:10.799Z,12.30
2023-04-28T22:02:41.746Z,12.90
2023-04-28T22:05:10.656Z,15.80
2023-04-28T22:07:38.856Z,13.60
2023-04-28T22:10:08.018Z,12.20
2023-04-28T22:12:36.066Z,12.70
2023-04-28T22:15:04.934Z,14.10
2023-04-28T22:17:32.942Z,16.30
2023-04-28T22:20:00.865Z,23.30
2023-04-28T22:22:30.196Z,18.10
2023-04-28T22:24:58.425Z,21.40
2023-04-28T22:27:27.104Z,16.70
2023-04-28T22:29:55.016Z,15.40
2023-04-28T22:32:23.280Z,15.30
2023-04-28T22:34:51.319Z,17.90
2023-04-28T22:37:19.233Z,10.90
2023-04-28T22:39:47.157Z,11.90
2023-04-28T22:42:15.107Z,14.80
2023-04-28T22:44:43.308Z,12.60
2023-04-28T22:47:11.230Z,11.40
2023-04-28T22:49:39.509Z,18.50
2023-04-28T22:52:07.512Z,10.80
2023-04-28T22:54:36.787Z,11.30
2023-04-28T22:57:04.675Z,11.40
2023-04-28T22:59:33.254Z,12.30
2023-04-28T23:02:02.341Z,12.80
2023-04-28T23:04:30.910Z,11.70
2023-04-28T23:06:58.980Z,16.30
2023-04-28T23:09:27.081Z,15.50
2023-04-28T23:11:55.069Z,12.10
2023-04-28T23:14:23.116Z,12.70
2023-04-28T23:16:51.064Z,12.30
2023-04-28T23:19:20.739Z,12.30
2023-04-28T23:21:48.867Z,13.50
2023-04-28T23:24:16.825Z,12.70
2023-04-28T23:26:44.758Z,13.50
2023-04-28T23:29:12.642Z,10.70
2023-04-28T23:31:40.615Z,13.00
2023-04-28T23:34:09.243Z,11.20
2023-04-28T23:36:37.839Z,13.20
2023-04-28T23:39:05.877Z,13.10
2023-04-28T23:41:34.249Z,12.50
2023-04-28T23:44:02.191Z,12.20
2023-04-28T23:46:30.998Z,13.20
2023-04-28T23:48:59.045Z,11.10
2023-04-28T23:51:27.101Z,13.90
2023-04-28T23:53:55.097Z,13.30
2023-04-28T23:56:23.035Z,13.50
2023-04-28T23:58:51.243Z,12.80
